Time,TemperatureF,DewpointF,PressureIn,WindDirection,WindDirectionDegrees,WindSpeedMPH,WindSpeedGustMPH,Humidity,HourlyPrecipIn,Conditions,Clouds,dailyrainin,SoftwareType,DateUTC
2013-09-04 00:00:00,75.9,61.5,29.83,NNE,25,0.0,0.0,61,0.00,,---,0.00,VWS V14.01,2013-09-04 07:00:00,
2013-09-04 00:01:00,75.9,61.5,29.83,NNE,26,0.0,0.0,61,0.00,,---,0.00,VWS V14.01,2013-09-04 07:01:00,
2013-09-04 00:06:00,75.9,60.1,29.83,NNE,26,0.0,0.0,58,0.00,,---,0.00,VWS V14.01,2013-09-04 07:06:00,
2013-09-04 00:11:00,75.8,59.5,29.83,NNE,26,0.0,0.0,57,0.00,,---,0.00,VWS V14.01,2013-09-04 07:11:00,
2013-09-04 00:15:00,75.6,58.8,29.83,NNE,26,0.0,3.0,56,0.00,,---,0.00,VWS V14.01,2013-09-04 07:15:00,
2013-09-04 00:16:00,75.6,58.8,29.83,NNE,26,0.0,0.0,56,0.00,,---,0.00,VWS V14.01,2013-09-04 07:16:00,
2013-09-04 00:21:00,75.4,59.1,29.83,NNE,26,2.0,2.0,57,0.00,,---,0.00,VWS V14.01,2013-09-04 07:21:00,
2013-09-04 00:26:00,75.3,59.0,29.83,NNE,26,0.0,3.0,57,0.00,,---,0.00,VWS V14.01,2013-09-04 07:26:00,
2013-09-04 00:30:00,75.1,58.8,29.83,NNE,26,0.0,3.0,57,0.00,,---,0.00,VWS V14.01,2013-09-04 07:30:00,
2013-09-04 00:31:00,75.1,58.8,29.83,NNE,26,0.0,0.0,57,0.00,,---,0.00,VWS V14.01,2013-09-04 07:31:00,
2013-09-04 00:36:00,74.9,58.7,29.83,NNE,26,0.0,0.0,57,0.00,,---,0.00,VWS V14.01,2013-09-04 07:36:00,
2013-09-04 00:41:00,74.8,58.6,29.83,NNE,28,3.0,3.0,57,0.00,,---,0.00,VWS V14.01,2013-09-04 07:41:00,
2013-09-04 00:45:00,74.8,58.6,29.83,NNE,30,2.0,3.0,57,0.00,,---,0.00,VWS V14.01,2013-09-04 07:45:00,
2013-09-04 00:46:00,74.8,58.6,29.83,NNE,32,0.0,2.0,57,0.00,,---,0.00,VWS V14.01,2013-09-04 07:46:00,
2013-09-04 00:51:00,74.7,58.5,29.83,NNE,30,1.0,2.0,57,0.00,,---,0.00,VWS V14.01,2013-09-04 07:51:00,
2013-09-04 00:56:00,74.6,58.4,29.83,NNE,31,0.0,2.0,57,0.00,,---,0.00,VWS V14.01,2013-09-04 07:56:00,
2013-09-04 01:00:00,74.6,58.4,29.83,NNE,30,2.0,2.0,57,0.00,,---,0.00,VWS V14.01,2013-09-04 08:00:00,
2013-09-04 01:01:00,74.6,58.4,29.83,NNE,30,1.0,2.0,57,0.00,,---,0.00,VWS V14.01,2013-09-04 08:01:00,
2013-09-04 01:06:00,74.6,58.4,29.83,NNE,30,0.0,3.0,57,0.00,,---,0.00,VWS V14.01,2013-09-04 08:06:00,
2013-09-04 01:11:00,74.5,57.8,29.83,NNE,31,0.0,3.0,56,0.00,,---,0.00,VWS V14.01,2013-09-04 08:11:00,
2013-09-04 01:15:00,74.5,58.3,29.83,NNE,30,0.0,3.0,57,0.00,,---,0.00,VWS V14.01,2013-09-04 08:15:00,
2013-09-04 01:16:00,74.6,58.4,29.83,NNE,31,0.0,0.0,57,0.00,,---,0.00,VWS V14.01,2013-09-04 08:16:00,
2013-09-04 01:21:00,74.6,57.9,29.83,NNE,30,0.0,0.0,56,0.00,,---,0.00,VWS V14.01,2013-09-04 08:21:00,
2013-09-04 01:26:00,74.6,57.9,29.83,NNE,30,1.0,1.0,56,0.00,,---,0.00,VWS V14.01,2013-09-04 08:26:00,
2013-09-04 01:30:00,74.6,57.9,29.83,NNE,31,0.0,3.0,56,0.00,,---,0.00,VWS V14.01,2013-09-04 08:30:00,
2013-09-04 01:31:00,74.6,57.9,29.83,NNE,31,0.0,0.0,56,0.00,,---,0.00,VWS V14.01,2013-09-04 08:31:00,
2013-09-04 01:36:00,74.5,57.8,29.83,NNE,30,0.0,3.0,56,0.00,,---,0.00,VWS V14.01,2013-09-04 08:36:00,
2013-09-04 01:41:00,74.4,58.2,29.83,NNE,31,0.0,3.0,57,0.00,,---,0.00,VWS V14.01,2013-09-04 08:41:00,
2013-09-04 01:45:00,74.4,58.7,29.83,NNE,32,0.0,3.0,58,0.00,,---,0.00,VWS V14.01,2013-09-04 08:45:00,
2013-09-04 01:46:00,74.3,58.6,29.83,NNE,30,0.0,0.0,58,0.00,,---,0.00,VWS V14.01,2013-09-04 08:46:00,
2013-09-04 01:51:00,74.2,57.5,29.83,NNE,32,0.0,0.0,56,0.00,,---,0.00,VWS V14.01,2013-09-04 08:51:00,
2013-09-04 01:56:00,74.0,57.8,29.83,NNE,30,0.0,0.0,57,0.00,,---,0.00,VWS V14.01,2013-09-04 08:56:00,
2013-09-04 02:00:00,74.0,57.8,29.83,NNE,30,0.0,0.0,57,0.00,,---,0.00,VWS V14.01,2013-09-04 09:00:00,
2013-09-04 02:01:00,74.0,58.3,29.83,NNE,30,0.0,0.0,58,0.00,,---,0.00,VWS V14.01,2013-09-04 09:01:00,
2013-09-04 02:06:00,73.9,58.2,29.83,NE,37,0.0,3.0,58,0.00,,---,0.00,VWS V14.01,2013-09-04 09:06:00,
2013-09-04 02:11:00,73.9,58.2,29.83,NE,37,0.0,3.0,58,0.00,,---,0.00,VWS V14.01,2013-09-04 09:11:00,
2013-09-04 02:15:00,73.9,58.7,29.83,NE,38,0.0,3.0,59,0.00,,---,0.00,VWS V14.01,2013-09-04 09:15:00,
2013-09-04 02:16:00,73.9,58.7,29.83,NE,37,1.0,1.0,59,0.00,,---,0.00,VWS V14.01,2013-09-04 09:16:00,
2013-09-04 02:21:00,73.9,59.2,29.82,NE,38,1.0,2.0,60,0.00,,---,0.00,VWS V14.01,2013-09-04 09:21:00,
2013-09-04 02:26:00,73.8,59.1,29.82,NE,37,0.0,2.0,60,0.00,,---,0.00,VWS V14.01,2013-09-04 09:26:00,
2013-09-04 02:30:00,73.7,59.0,29.82,NE,37,0.0,3.0,60,0.00,,---,0.00,VWS V14.01,2013-09-04 09:30:00,
2013-09-04 02:31:00,73.7,59.0,29.82,NE,37,0.0,0.0,60,0.00,,---,0.00,VWS V14.01,2013-09-04 09:31:00,
2013-09-04 02:36:00,73.6,58.9,29.82,NE,37,0.0,0.0,60,0.00,,---,0.00,VWS V14.01,2013-09-04 09:36:00,
2013-09-04 02:41:00,73.5,59.2,29.82,NE,37,0.0,0.0,61,0.00,,---,0.00,VWS V14.01,2013-09-04 09:41:00,
2013-09-04 02:45:00,73.4,58.7,29.82,NE,37,0.0,0.0,60,0.00,,---,0.00,VWS V14.01,2013-09-04 09:45:00,
2013-09-04 02:46:00,73.4,58.7,29.82,NE,37,0.0,0.0,60,0.00,,---,0.00,VWS V14.01,2013-09-04 09:46:00,
2013-09-04 02:51:00,73.3,58.6,29.82,NE,38,0.0,0.0,60,0.00,,---,0.00,VWS V14.01,2013-09-04 09:51:00,
2013-09-04 02:56:00,73.3,59.0,29.82,NE,37,0.0,2.0,61,0.00,,---,0.00,VWS V14.01,2013-09-04 09:56:00,
2013-09-04 03:00:00,73.2,58.5,29.82,ENE,74,0.0,4.0,60,0.00,,---,0.00,VWS V14.01,2013-09-04 10:00:00,
2013-09-04 03:01:00,73.2,58.5,29.82,ENE,75,0.0,0.0,60,0.00,,---,0.00,VWS V14.01,2013-09-04 10:01:00,
2013-09-04 03:06:00,73.3,58.6,29.82,ENE,71,2.0,4.0,60,0.00,,---,0.00,VWS V14.01,2013-09-04 10:06:00,
2013-09-04 03:11:00,73.3,58.1,29.82,ENE,70,0.0,4.0,59,0.00,,---,0.00,VWS V14.01,2013-09-04 10:11:00,
2013-09-04 03:15:00,73.4,58.2,29.82,ENE,69,0.0,4.0,59,0.00,,---,0.00,VWS V14.01,2013-09-04 10:15:00,
2013-09-04 03:16:00,73.4,58.2,29.82,ENE,70,0.0,0.0,59,0.00,,---,0.00,VWS V14.01,2013-09-04 10:16:00,
2013-09-04 03:21:00,73.3,58.1,29.82,ENE,71,0.0,0.0,59,0.00,,---,0.00,VWS V14.01,2013-09-04 10:21:00,
2013-09-04 03:26:00,73.4,58.2,29.82,ENE,70,0.0,0.0,59,0.00,,---,0.00,VWS V14.01,2013-09-04 10:26:00,
2013-09-04 03:30:00,73.4,58.2,29.82,ENE,70,0.0,0.0,59,0.00,,---,0.00,VWS V14.01,2013-09-04 10:30:00,
2013-09-04 03:31:00,73.4,58.2,29.82,ENE,69,0.0,0.0,59,0.00,,---,0.00,VWS V14.01,2013-09-04 10:31:00,
2013-09-04 03:36:00,73.4,58.2,29.82,ENE,71,0.0,0.0,59,0.00,,---,0.00,VWS V14.01,2013-09-04 10:36:00,
2013-09-04 03:41:00,73.3,58.1,29.82,ENE,70,0.0,0.0,59,0.00,,---,0.00,VWS V14.01,2013-09-04 10:41:00,
2013-09-04 03:45:00,73.3,58.1,29.82,ENE,71,0.0,0.0,59,0.00,,---,0.00,VWS V14.01,2013-09-04 10:45:00,
2013-09-04 03:46:00,73.3,58.1,29.82,ENE,69,0.0,0.0,59,0.00,,---,0.00,VWS V14.01,2013-09-04 10:46:00,
2013-09-04 03:51:00,73.4,58.2,29.82,ENE,69,0.0,0.0,59,0.00,,---,0.00,VWS V14.01,2013-09-04 10:51:00,
2013-09-04 03:56:00,73.4,58.2,29.82,ENE,69,0.0,0.0,59,0.00,,---,0.00,VWS V14.01,2013-09-04 10:56:00,
2013-09-04 04:00:00,73.3,58.6,29.82,ENE,71,0.0,0.0,60,0.00,,---,0.00,VWS V14.01,2013-09-04 11:00:00,
2013-09-04 04:01:00,73.3,58.6,29.82,ENE,69,0.0,0.0,60,0.00,,---,0.00,VWS V14.01,2013-09-04 11:01:00,
2013-09-04 04:06:00,73.3,59.0,29.82,ENE,71,0.0,0.0,61,0.00,,---,0.00,VWS V14.01,2013-09-04 11:06:00,
2013-09-04 04:11:00,73.3,59.0,29.82,ENE,70,0.0,0.0,61,0.00,,---,0.00,VWS V14.01,2013-09-04 11:11:00,
2013-09-04 04:15:00,73.2,59.0,29.82,ENE,71,0.0,0.0,61,0.00,,---,0.00,VWS V14.01,2013-09-04 11:15:00,
2013-09-04 04:16:00,73.2,59.0,29.82,ENE,71,0.0,0.0,61,0.00,,---,0.00,VWS V14.01,2013-09-04 11:16:00,
2013-09-04 04:21:00,73.1,58.9,29.82,ENE,70,0.0,0.0,61,0.00,,---,0.00,VWS V14.01,2013-09-04 11:21:00,
2013-09-04 04:26:00,73.0,59.2,29.82,ENE,70,0.0,0.0,62,0.00,,---,0.00,VWS V14.01,2013-09-04 11:26:00,
2013-09-04 04:30:00,72.8,59.0,29.82,ENE,71,0.0,0.0,62,0.00,,---,0.00,VWS V14.01,2013-09-04 11:30:00,
2013-09-04 04:31:00,72.8,59.0,29.82,ENE,71,0.0,0.0,62,0.00,,---,0.00,VWS V14.01,2013-09-04 11:31:00,
2013-09-04 04:36:00,72.7,59.4,29.82,ENE,71,0.0,0.0,63,0.00,,---,0.00,VWS V14.01,2013-09-04 11:36:00,
2013-09-04 04:41:00,72.6,59.3,29.82,ENE,69,0.0,0.0,63,0.00,,---,0.00,VWS V14.01,2013-09-04 11:41:00,
2013-09-04 04:45:00,72.6,60.2,29.82,ENE,71,0.0,0.0,65,0.00,,---,0.00,VWS V14.01,2013-09-04 11:45:00,
2013-09-04 04:46:00,72.6,60.2,29.82,ENE,69,0.0,0.0,65,0.00,,---,0.00,VWS V14.01,2013-09-04 11:46:00,
2013-09-04 04:51:00,72.5,60.5,29.83,ENE,71,0.0,0.0,66,0.00,,---,0.00,VWS V14.01,2013-09-04 11:51:00,
2013-09-04 04:56:00,72.5,60.9,29.83,ENE,71,0.0,1.0,67,0.00,,---,0.00,VWS V14.01,2013-09-04 11:56:00,
2013-09-04 05:00:00,72.6,61.4,29.83,ENE,69,0.0,1.0,68,0.00,,---,0.00,VWS V14.01,2013-09-04 12:00:00,
2013-09-04 05:01:00,72.5,61.3,29.83,ENE,70,0.0,0.0,68,0.00,,---,0.00,VWS V14.01,2013-09-04 12:01:00,
2013-09-04 05:06:00,72.5,61.3,29.83,ENE,71,0.0,0.0,68,0.00,,---,0.00,VWS V14.01,2013-09-04 12:06:00,
2013-09-04 05:11:00,72.4,61.2,29.83,ENE,71,0.0,2.0,68,0.00,,---,0.00,VWS V14.01,2013-09-04 12:11:00,
2013-09-04 05:15:00,72.4,61.2,29.83,ENE,69,0.0,2.0,68,0.00,,---,0.00,VWS V14.01,2013-09-04 12:15:00,
2013-09-04 05:16:00,72.4,61.2,29.83,ENE,69,0.0,0.0,68,0.00,,---,0.00,VWS V14.01,2013-09-04 12:16:00,
2013-09-04 05:21:00,72.2,61.1,29.83,ENE,70,0.0,0.0,68,0.00,,---,0.00,VWS V14.01,2013-09-04 12:21:00,
2013-09-04 05:26:00,72.1,60.5,29.83,ENE,70,0.0,0.0,67,0.00,,---,0.00,VWS V14.01,2013-09-04 12:26:00,
2013-09-04 05:30:00,72.0,60.5,29.83,ENE,71,0.0,0.0,67,0.00,,---,0.00,VWS V14.01,2013-09-04 12:30:00,
2013-09-04 05:31:00,72.0,60.5,29.83,ENE,69,0.0,0.0,67,0.00,,---,0.00,VWS V14.01,2013-09-04 12:31:00,
2013-09-04 05:36:00,71.9,60.4,29.83,ENE,69,0.0,0.0,67,0.00,,---,0.00,VWS V14.01,2013-09-04 12:36:00,
2013-09-04 05:41:00,71.9,59.9,29.83,ENE,71,0.0,0.0,66,0.00,,---,0.00,VWS V14.01,2013-09-04 12:41:00,
2013-09-04 05:45:00,71.7,59.8,29.83,ENE,71,0.0,2.0,66,0.00,,---,0.00,VWS V14.01,2013-09-04 12:45:00,
2013-09-04 05:46:00,71.8,59.8,29.83,ENE,71,0.0,0.0,66,0.00,,---,0.00,VWS V14.01,2013-09-04 12:46:00,
2013-09-04 05:51:00,71.6,59.2,29.83,ENE,71,0.0,0.0,65,0.00,,---,0.00,VWS V14.01,2013-09-04 12:51:00,
2013-09-04 05:56:00,71.5,59.1,29.83,ENE,69,2.0,3.0,65,0.00,,---,0.00,VWS V14.01,2013-09-04 12:56:00,
2013-09-04 06:00:00,71.5,58.7,29.83,ENE,71,1.0,3.0,64,0.00,,---,0.00,VWS V14.01,2013-09-04 13:00:00,
2013-09-04 06:01:00,71.5,58.7,29.83,ENE,70,2.0,2.0,64,0.00,,---,0.00,VWS V14.01,2013-09-04 13:01:00,
2013-09-04 06:06:00,71.4,58.6,29.84,ENE,71,0.0,3.0,64,0.00,,---,0.00,VWS V14.01,2013-09-04 13:06:00,
2013-09-04 06:11:00,71.3,58.5,29.84,ENE,69,0.0,3.0,64,0.00,,---,0.00,VWS V14.01,2013-09-04 13:11:00,
2013-09-04 06:15:00,71.3,58.5,29.84,ENE,71,0.0,3.0,64,0.00,,---,0.00,VWS V14.01,2013-09-04 13:15:00,
2013-09-04 06:16:00,71.3,58.9,29.84,ENE,69,0.0,0.0,65,0.00,,---,0.00,VWS V14.01,2013-09-04 13:16:00,
2013-09-04 06:21:00,71.3,58.9,29.84,ENE,71,0.0,0.0,65,0.00,,---,0.00,VWS V14.01,2013-09-04 13:21:00,
2013-09-04 06:26:00,71.3,58.9,29.84,ENE,69,0.0,0.0,65,0.00,,---,0.00,VWS V14.01,2013-09-04 13:26:00,
2013-09-04 06:31:00,71.3,59.4,29.84,ENE,71,0.0,0.0,66,0.00,,---,0.00,VWS V14.01,2013-09-04 13:31:00,
2013-09-04 06:36:00,71.3,58.9,29.84,ENE,69,0.0,2.0,65,0.00,,---,0.00,VWS V14.01,2013-09-04 13:36:00,
2013-09-04 06:41:00,71.2,58.8,29.84,ENE,71,0.0,2.0,65,0.00,,---,0.00,VWS V14.01,2013-09-04 13:41:00,
2013-09-04 06:46:00,71.3,58.9,29.85,ENE,71,0.0,0.0,65,0.00,,---,0.00,VWS V14.01,2013-09-04 13:46:00,
2013-09-04 06:51:00,71.3,58.9,29.84,ENE,69,0.0,3.0,65,0.00,,---,0.00,VWS V14.01,2013-09-04 13:51:00,
2013-09-04 06:56:00,71.3,58.5,29.85,ENE,70,0.0,3.0,64,0.00,,---,0.00,VWS V14.01,2013-09-04 13:56:00,
2013-09-04 07:01:00,71.5,58.7,29.85,ENE,71,0.0,0.0,64,0.00,,---,0.00,VWS V14.01,2013-09-04 14:01:00,
2013-09-04 07:06:00,71.7,58.9,29.85,ENE,69,1.0,3.0,64,0.00,,---,0.00,VWS V14.01,2013-09-04 14:06:00,
2013-09-04 07:10:00,71.9,59.5,29.85,ENE,69,2.0,4.0,65,0.00,,---,0.00,VWS V14.01,2013-09-04 14:10:00,
2013-09-04 07:15:00,72.2,59.4,29.86,ENE,71,0.0,0.0,64,0.00,,---,0.00,VWS V14.01,2013-09-04 14:15:00,
2013-09-04 07:20:00,72.5,59.6,29.86,ENE,70,0.0,0.0,64,0.00,,---,0.00,VWS V14.01,2013-09-04 14:20:00,
2013-09-04 07:25:00,72.9,60.0,29.86,ENE,71,0.0,0.0,64,0.00,,---,0.00,VWS V14.01,2013-09-04 14:25:00,
2013-09-04 07:30:00,73.4,60.5,29.86,ENE,71,0.0,0.0,64,0.00,,---,0.00,VWS V14.01,2013-09-04 14:30:00,
2013-09-04 07:35:00,73.8,60.9,29.86,ENE,71,0.0,0.0,64,0.00,,---,0.00,VWS V14.01,2013-09-04 14:35:00,
2013-09-04 07:40:00,74.2,60.8,29.86,ENE,71,0.0,0.0,63,0.00,,---,0.00,VWS V14.01,2013-09-04 14:40:00,
2013-09-04 07:45:00,74.6,61.2,29.86,ENE,71,0.0,0.0,63,0.00,,---,0.00,VWS V14.01,2013-09-04 14:45:00,
2013-09-04 07:50:00,75.2,61.8,29.86,ENE,70,0.0,0.0,63,0.00,,---,0.00,VWS V14.01,2013-09-04 14:50:00,
2013-09-04 07:55:00,75.7,61.8,29.86,ENE,70,0.0,0.0,62,0.00,,---,0.00,VWS V14.01,2013-09-04 14:55:00,
2013-09-04 08:00:00,76.2,62.2,29.86,ENE,69,0.0,0.0,62,0.00,,---,0.00,VWS V14.01,2013-09-04 15:00:00,
2013-09-04 08:05:00,76.8,62.3,29.86,ENE,69,0.0,0.0,61,0.00,,---,0.00,VWS V14.01,2013-09-04 15:05:00,
2013-09-04 08:10:00,77.6,63.1,29.86,ENE,70,0.0,0.0,61,0.00,,---,0.00,VWS V14.01,2013-09-04 15:10:00,
2013-09-04 08:15:00,78.4,62.9,29.86,ENE,70,0.0,0.0,59,0.00,,---,0.00,VWS V14.01,2013-09-04 15:15:00,
2013-09-04 08:20:00,79.0,63.0,29.86,ENE,69,0.0,0.0,58,0.00,,---,0.00,VWS V14.01,2013-09-04 15:20:00,
2013-09-04 08:25:00,79.8,63.2,29.86,ENE,69,0.0,0.0,57,0.00,,---,0.00,VWS V14.01,2013-09-04 15:25:00,
2013-09-04 08:30:00,80.3,64.2,29.86,ENE,71,0.0,0.0,58,0.00,,---,0.00,VWS V14.01,2013-09-04 15:30:00,
2013-09-04 08:35:00,80.8,63.1,29.86,ENE,70,0.0,0.0,55,0.00,,---,0.00,VWS V14.01,2013-09-04 15:35:00,
2013-09-04 08:40:00,81.2,63.5,29.86,ENE,71,0.0,0.0,55,0.00,,---,0.00,VWS V14.01,2013-09-04 15:40:00,
2013-09-04 08:45:00,81.7,63.5,29.86,ENE,69,0.0,0.0,54,0.00,,---,0.00,VWS V14.01,2013-09-04 15:45:00,
2013-09-04 08:50:00,82.2,63.4,29.86,ENE,70,0.0,1.0,53,0.00,,---,0.00,VWS V14.01,2013-09-04 15:50:00,
2013-09-04 08:55:00,82.7,63.8,29.85,ENE,74,1.0,1.0,53,0.00,,---,0.00,VWS V14.01,2013-09-04 15:55:00,
2013-09-04 09:00:00,83.1,61.4,29.85,ENE,78,0.0,2.0,48,0.00,,---,0.00,VWS V14.01,2013-09-04 16:00:00,
2013-09-04 09:05:00,83.7,63.1,29.86,SSW,203,0.0,3.0,50,0.00,,---,0.00,VWS V14.01,2013-09-04 16:05:00,
2013-09-04 09:10:00,84.5,62.1,29.86,SSW,204,1.0,3.0,47,0.00,,---,0.00,VWS V14.01,2013-09-04 16:10:00,
2013-09-04 09:15:00,85.5,63.6,29.86,SSW,204,0.0,4.0,48,0.00,,---,0.00,VWS V14.01,2013-09-04 16:15:00,
2013-09-04 09:20:00,86.5,63.3,29.85,SSW,205,1.0,3.0,46,0.00,,---,0.00,VWS V14.01,2013-09-04 16:20:00,
2013-09-04 09:25:00,87.6,64.3,29.86,SSW,194,2.0,3.0,46,0.00,,---,0.00,VWS V14.01,2013-09-04 16:25:00,
2013-09-04 09:30:00,88.5,65.7,29.85,SSW,203,0.0,4.0,47,0.00,,---,0.00,VWS V14.01,2013-09-04 16:30:00,
2013-09-04 09:35:00,89.0,63.6,29.85,West,273,1.0,3.0,43,0.00,,---,0.00,VWS V14.01,2013-09-04 16:35:00,
2013-09-04 09:40:00,89.5,63.4,29.85,West,269,0.0,3.0,42,0.00,,---,0.00,VWS V14.01,2013-09-04 16:40:00,
2013-09-04 09:45:00,90.1,64.6,29.85,West,266,0.0,3.0,43,0.00,,---,0.00,VWS V14.01,2013-09-04 16:45:00,
2013-09-04 09:50:00,90.5,65.0,29.85,SW,215,0.0,4.0,43,0.00,,---,0.00,VWS V14.01,2013-09-04 16:50:00,
2013-09-04 09:55:00,90.8,64.6,29.85,WSW,244,2.0,4.0,42,0.00,,---,0.00,VWS V14.01,2013-09-04 16:55:00,
2013-09-04 10:00:00,91.2,64.2,29.85,West,260,2.0,4.0,41,0.00,,---,0.00,VWS V14.01,2013-09-04 17:00:00,
2013-09-04 10:05:00,91.7,66.1,29.85,West,259,3.0,4.0,43,0.00,,---,0.00,VWS V14.01,2013-09-04 17:05:00,
2013-09-04 10:10:00,92.0,64.2,29.85,West,261,2.0,6.0,40,0.00,,---,0.00,VWS V14.01,2013-09-04 17:10:00,
2013-09-04 10:15:00,92.2,63.0,29.85,WSW,257,4.0,6.0,38,0.00,,---,0.00,VWS V14.01,2013-09-04 17:15:00,
2013-09-04 10:20:00,92.3,63.8,29.85,WSW,256,2.0,6.0,39,0.00,,---,0.00,VWS V14.01,2013-09-04 17:20:00,
2013-09-04 10:25:00,92.6,64.8,29.85,West,263,0.0,6.0,40,0.00,,---,0.00,VWS V14.01,2013-09-04 17:25:00,
2013-09-04 10:30:00,92.9,65.8,29.85,West,261,1.0,6.0,41,0.00,,---,0.00,VWS V14.01,2013-09-04 17:30:00,
2013-09-04 10:35:00,92.9,65.8,29.85,West,263,1.0,6.0,41,0.00,,---,0.00,VWS V14.01,2013-09-04 17:35:00,
2013-09-04 10:40:00,92.7,64.1,29.85,SW,233,4.0,7.0,39,0.00,,---,0.00,VWS V14.01,2013-09-04 17:40:00,
2013-09-04 10:45:00,92.7,64.9,29.85,West,261,2.0,7.0,40,0.00,,---,0.00,VWS V14.01,2013-09-04 17:45:00,
2013-09-04 10:50:00,92.6,65.5,29.85,West,267,0.0,6.0,41,0.00,,---,0.00,VWS V14.01,2013-09-04 17:50:00,
2013-09-04 10:55:00,92.7,64.9,29.84,WSW,256,7.0,10.0,40,0.00,,---,0.00,VWS V14.01,2013-09-04 17:55:00,
2013-09-04 11:00:00,92.6,64.8,29.85,WSW,237,4.0,10.0,40,0.00,,---,0.00,VWS V14.01,2013-09-04 18:00:00,
2013-09-04 11:05:00,92.7,65.6,29.85,WSW,251,3.0,5.0,41,0.00,,---,0.00,VWS V14.01,2013-09-04 18:05:00,
2013-09-04 11:10:00,92.8,65.7,29.84,SW,223,4.0,7.0,41,0.00,,---,0.00,VWS V14.01,2013-09-04 18:10:00,
2013-09-04 11:15:00,93.2,66.7,29.84,WSW,257,4.0,7.0,42,0.00,,---,0.00,VWS V14.01,2013-09-04 18:15:00,
2013-09-04 11:20:00,93.6,66.4,29.84,WSW,244,5.0,7.0,41,0.00,,---,0.00,VWS V14.01,2013-09-04 18:20:00,
2013-09-04 11:25:00,93.9,66.6,29.84,WSW,258,5.0,7.0,41,0.00,,---,0.00,VWS V14.01,2013-09-04 18:25:00,
2013-09-04 11:30:00,94.2,66.2,29.84,WNW,299,5.0,8.0,40,0.00,,---,0.00,VWS V14.01,2013-09-04 18:30:00,
2013-09-04 11:35:00,93.4,65.5,29.84,West,259,4.0,10.0,40,0.00,,---,0.00,VWS V14.01,2013-09-04 18:35:00,
2013-09-04 11:40:00,93.0,65.8,29.84,SW,225,7.0,10.0,41,0.00,,---,0.00,VWS V14.01,2013-09-04 18:40:00,
2013-09-04 11:45:00,93.1,66.6,29.84,WSW,248,4.0,10.0,42,0.00,,---,0.00,VWS V14.01,2013-09-04 18:45:00,
2013-09-04 11:50:00,93.5,68.3,29.84,SW,236,0.0,7.0,44,0.00,,---,0.00,VWS V14.01,2013-09-04 18:50:00,
2013-09-04 11:55:00,93.9,67.3,29.84,SW,233,7.0,9.0,42,0.00,,---,0.00,VWS V14.01,2013-09-04 18:55:00,
2013-09-04 12:00:00,94.2,66.2,29.84,SW,234,2.0,9.0,40,0.00,,---,0.00,VWS V14.01,2013-09-04 19:00:00,
2013-09-04 12:05:00,94.4,65.7,29.84,WSW,256,5.0,6.0,39,0.00,,---,0.00,VWS V14.01,2013-09-04 19:05:00,
2013-09-04 12:10:00,94.7,68.1,29.84,SW,227,4.0,6.0,42,0.00,,---,0.00,VWS V14.01,2013-09-04 19:10:00,
2013-09-04 12:15:00,95.3,67.2,29.84,WNW,294,1.0,9.0,40,0.00,,---,0.00,VWS V14.01,2013-09-04 19:15:00,
2013-09-04 12:20:00,95.3,66.4,29.83,West,261,0.0,8.0,39,0.00,,---,0.00,VWS V14.01,2013-09-04 19:20:00,
2013-09-04 12:25:00,95.3,67.2,29.83,West,267,4.0,8.0,40,0.00,,---,0.00,VWS V14.01,2013-09-04 19:25:00,
2013-09-04 12:30:00,95.2,68.5,29.83,SW,230,6.0,8.0,42,0.00,,---,0.00,VWS V14.01,2013-09-04 19:30:00,
2013-09-04 12:35:00,95.5,68.1,29.83,SW,231,6.0,7.0,41,0.00,,---,0.00,VWS V14.01,2013-09-04 19:35:00,
2013-09-04 12:40:00,96.0,68.5,29.82,WSW,240,5.0,7.0,41,0.00,,---,0.00,VWS V14.01,2013-09-04 19:40:00,
2013-09-04 12:45:00,95.9,64.7,29.82,West,281,2.0,7.0,36,0.00,,---,0.00,VWS V14.01,2013-09-04 19:45:00,
2013-09-04 12:50:00,95.5,67.4,29.82,WNW,298,3.0,8.0,40,0.00,,---,0.00,VWS V14.01,2013-09-04 19:50:00,
2013-09-04 12:55:00,95.5,65.9,29.82,WSW,242,3.0,9.0,38,0.00,,---,0.00,VWS V14.01,2013-09-04 19:55:00,
2013-09-04 13:00:00,95.8,66.1,29.82,West,265,4.0,9.0,38,0.00,,---,0.00,VWS V14.01,2013-09-04 20:00:00,
2013-09-04 13:05:00,96.0,64.8,29.82,West,265,2.0,10.0,36,0.00,,---,0.00,VWS V14.01,2013-09-04 20:05:00,
2013-09-04 13:10:00,96.1,65.6,29.82,West,260,4.0,12.0,37,0.00,,---,0.00,VWS V14.01,2013-09-04 20:10:00,
2013-09-04 13:15:00,96.4,67.4,29.82,SW,230,0.0,12.0,39,0.00,,---,0.00,VWS V14.01,2013-09-04 20:15:00,
2013-09-04 13:20:00,96.4,65.1,29.82,West,264,5.0,9.0,36,0.00,,---,0.00,VWS V14.01,2013-09-04 20:20:00,
2013-09-04 13:25:00,96.5,66.8,29.82,WSW,244,6.0,9.0,38,0.00,,---,0.00,VWS V14.01,2013-09-04 20:25:00,
2013-09-04 13:30:00,96.6,66.1,29.82,WSW,255,3.0,9.0,37,0.00,,---,0.00,VWS V14.01,2013-09-04 20:30:00,
2013-09-04 13:35:00,96.7,64.6,29.82,West,280,3.0,7.0,35,0.00,,---,0.00,VWS V14.01,2013-09-04 20:35:00,
2013-09-04 13:40:00,96.4,65.1,29.82,WNW,291,4.0,8.0,36,0.00,,---,0.00,VWS V14.01,2013-09-04 20:40:00,
2013-09-04 13:45:00,96.1,64.0,29.82,NW,315,1.0,8.0,35,0.00,,---,0.00,VWS V14.01,2013-09-04 20:45:00,
2013-09-04 13:50:00,96.3,64.2,29.82,WNW,296,0.0,5.0,35,0.00,,---,0.00,VWS V14.01,2013-09-04 20:50:00,
2013-09-04 13:55:00,96.9,65.6,29.82,West,261,2.0,5.0,36,0.00,,---,0.00,VWS V14.01,2013-09-04 20:55:00,
2013-09-04 14:00:00,97.1,64.9,29.82,WSW,256,5.0,7.0,35,0.00,,---,0.00,VWS V14.01,2013-09-04 21:00:00,
2013-09-04 14:05:00,96.9,64.7,29.82,West,278,5.0,6.0,35,0.00,,---,0.00,VWS V14.01,2013-09-04 21:05:00,
2013-09-04 14:10:00,96.7,63.7,29.81,WNW,291,5.0,7.0,34,0.00,,---,0.00,VWS V14.01,2013-09-04 21:10:00,
2013-09-04 14:15:00,96.8,65.5,29.81,West,267,0.0,9.0,36,0.00,,---,0.00,VWS V14.01,2013-09-04 21:15:00,
2013-09-04 14:20:00,97.2,65.0,29.81,WSW,248,0.0,9.0,35,0.00,,---,0.00,VWS V14.01,2013-09-04 21:20:00,
2013-09-04 14:25:00,97.6,63.7,29.80,SW,236,5.0,9.0,33,0.00,,---,0.00,VWS V14.01,2013-09-04 21:25:00,
2013-09-04 14:30:00,97.9,64.8,29.80,NW,304,7.0,9.0,34,0.00,,---,0.00,VWS V14.01,2013-09-04 21:30:00,
2013-09-04 14:35:00,97.3,63.4,29.80,West,259,6.0,9.0,33,0.00,,---,0.00,VWS V14.01,2013-09-04 21:35:00,
2013-09-04 14:39:00,96.9,64.7,29.80,WSW,257,4.0,10.0,35,0.00,,---,0.00,VWS V14.01,2013-09-04 21:39:00,
2013-09-04 14:44:00,96.8,64.7,29.80,West,268,5.0,10.0,35,0.00,,---,0.00,VWS V14.01,2013-09-04 21:44:00,
2013-09-04 14:45:00,96.8,64.7,29.80,West,260,13.0,13.0,35,0.00,,---,0.00,VWS V14.01,2013-09-04 21:45:00,
2013-09-04 14:49:00,96.6,63.7,29.80,West,273,3.0,13.0,34,0.00,,---,0.00,VWS V14.01,2013-09-04 21:49:00,
2013-09-04 14:54:00,96.6,63.7,29.80,WSW,246,5.0,13.0,34,0.00,,---,0.00,VWS V14.01,2013-09-04 21:54:00,
2013-09-04 14:59:00,96.5,62.7,29.80,West,260,6.0,13.0,33,0.00,,---,0.00,VWS V14.01,2013-09-04 21:59:00,
2013-09-04 15:00:00,96.5,62.7,29.80,NW,304,4.0,13.0,33,0.00,,---,0.00,VWS V14.01,2013-09-04 22:00:00,
2013-09-04 15:05:00,96.3,65.0,29.80,WSW,238,4.0,9.0,36,0.00,,---,0.00,VWS V14.01,2013-09-04 22:05:00,
2013-09-04 15:09:00,96.4,65.1,29.80,WSW,257,6.0,9.0,36,0.00,,---,0.00,VWS V14.01,2013-09-04 22:09:00,
2013-09-04 15:14:00,96.3,63.4,29.80,NW,313,5.0,10.0,34,0.00,,---,0.00,VWS V14.01,2013-09-04 22:14:00,
2013-09-04 15:15:00,96.2,63.3,29.80,NW,311,1.0,10.0,34,0.00,,---,0.00,VWS V14.01,2013-09-04 22:15:00,
2013-09-04 15:19:00,96.2,63.3,29.80,WNW,295,6.0,10.0,34,0.00,,---,0.00,VWS V14.01,2013-09-04 22:19:00,
2013-09-04 15:24:00,96.0,64.8,29.80,WSW,256,2.0,10.0,36,0.00,,---,0.00,VWS V14.01,2013-09-04 22:24:00,
2013-09-04 15:29:00,95.8,62.1,29.80,WNW,294,2.0,10.0,33,0.00,,---,0.00,VWS V14.01,2013-09-04 22:29:00,
2013-09-04 15:30:00,95.7,62.9,29.80,West,270,1.0,10.0,34,0.00,,---,0.00,VWS V14.01,2013-09-04 22:30:00,
2013-09-04 15:34:00,95.6,62.8,29.80,West,273,3.0,7.0,34,0.00,,---,0.00,VWS V14.01,2013-09-04 22:34:00,
2013-09-04 15:39:00,95.7,63.7,29.80,SW,236,6.0,7.0,35,0.00,,---,0.00,VWS V14.01,2013-09-04 22:39:00,
2013-09-04 15:44:00,95.6,62.8,29.80,SW,225,5.0,9.0,34,0.00,,---,0.00,VWS V14.01,2013-09-04 22:44:00,
2013-09-04 15:45:00,95.6,62.8,29.80,SW,229,2.0,9.0,34,0.00,,---,0.00,VWS V14.01,2013-09-04 22:45:00,
2013-09-04 15:49:00,95.4,60.9,29.80,West,269,4.0,8.0,32,0.00,,---,0.00,VWS V14.01,2013-09-04 22:49:00,
2013-09-04 15:54:00,95.3,61.7,29.80,SW,228,3.0,8.0,33,0.00,,---,0.00,VWS V14.01,2013-09-04 22:54:00,
2013-09-04 15:59:00,95.1,60.6,29.80,NW,304,3.0,8.0,32,0.00,,---,0.00,VWS V14.01,2013-09-04 22:59:00,
2013-09-04 16:00:00,95.0,61.4,29.80,WSW,240,4.0,8.0,33,0.00,,---,0.00,VWS V14.01,2013-09-04 23:00:00,
2013-09-04 16:04:00,94.9,60.5,29.80,NNW,330,1.0,9.0,32,0.00,,---,0.00,VWS V14.01,2013-09-04 23:04:00,
2013-09-04 16:09:00,94.9,62.2,29.80,WSW,250,4.0,9.0,34,0.00,,---,0.00,VWS V14.01,2013-09-04 23:09:00,
2013-09-04 16:14:00,95.0,61.4,29.80,West,273,2.0,9.0,33,0.00,,---,0.00,VWS V14.01,2013-09-04 23:14:00,
2013-09-04 16:15:00,95.0,62.3,29.80,WSW,244,4.0,9.0,34,0.00,,---,0.00,VWS V14.01,2013-09-04 23:15:00,
2013-09-04 16:19:00,95.1,60.6,29.80,West,264,2.0,7.0,32,0.00,,---,0.00,VWS V14.01,2013-09-04 23:19:00,
2013-09-04 16:24:00,95.0,61.4,29.80,WSW,240,2.0,8.0,33,0.00,,---,0.00,VWS V14.01,2013-09-04 23:24:00,
2013-09-04 16:29:00,94.7,61.2,29.80,WNW,285,1.0,8.0,33,0.00,,---,0.00,VWS V14.01,2013-09-04 23:29:00,
2013-09-04 16:30:00,94.6,61.1,29.80,West,267,6.0,8.0,33,0.00,,---,0.00,VWS V14.01,2013-09-04 23:30:00,
2013-09-04 16:34:00,94.2,60.7,29.80,WSW,238,4.0,7.0,33,0.00,,---,0.00,VWS V14.01,2013-09-04 23:34:00,
2013-09-04 16:39:00,93.7,60.3,29.80,WSW,248,4.0,7.0,33,0.00,,---,0.00,VWS V14.01,2013-09-04 23:39:00,
2013-09-04 16:44:00,93.3,59.9,29.80,SW,221,2.0,7.0,33,0.00,,---,0.00,VWS V14.01,2013-09-04 23:44:00,
2013-09-04 16:45:00,93.3,60.8,29.80,West,275,0.0,7.0,34,0.00,,---,0.00,VWS V14.01,2013-09-04 23:45:00,
2013-09-04 16:49:00,93.1,59.8,29.80,NW,319,3.0,7.0,33,0.00,,---,0.00,VWS V14.01,2013-09-04 23:49:00,
2013-09-04 16:54:00,92.9,61.2,29.80,West,264,1.0,7.0,35,0.00,,---,0.00,VWS V14.01,2013-09-04 23:54:00,
2013-09-04 16:59:00,92.9,60.4,29.80,WNW,290,3.0,7.0,34,0.00,,---,0.00,VWS V14.01,2013-09-04 23:59:00,
2013-09-04 17:00:00,92.9,60.4,29.80,WSW,248,1.0,7.0,34,0.00,,---,0.00,VWS V14.01,2013-09-05 00:00:00,
2013-09-04 17:04:00,93.0,59.7,29.80,NW,319,4.0,6.0,33,0.00,,---,0.00,VWS V14.01,2013-09-05 00:04:00,
2013-09-04 17:09:00,92.9,60.4,29.80,WNW,303,5.0,6.0,34,0.00,,---,0.00,VWS V14.01,2013-09-05 00:09:00,
2013-09-04 17:14:00,92.7,58.5,29.80,West,279,4.0,7.0,32,0.00,,---,0.00,VWS V14.01,2013-09-05 00:14:00,
2013-09-04 17:15:00,92.6,58.5,29.80,WNW,296,1.0,7.0,32,0.00,,---,0.00,VWS V14.01,2013-09-05 00:15:00,
2013-09-04 17:19:00,92.4,59.2,29.80,WSW,256,4.0,7.0,33,0.00,,---,0.00,VWS V14.01,2013-09-05 00:19:00,
2013-09-04 17:24:00,92.1,58.0,29.80,NW,317,0.0,7.0,32,0.00,,---,0.00,VWS V14.01,2013-09-05 00:24:00,
2013-09-04 17:29:00,91.9,60.4,29.80,West,272,0.0,7.0,35,0.00,,---,0.00,VWS V14.01,2013-09-05 00:29:00,
2013-09-04 17:30:00,91.9,60.4,29.80,WSW,249,0.0,7.0,35,0.00,,---,0.00,VWS V14.01,2013-09-05 00:30:00,
2013-09-04 17:34:00,91.8,60.3,29.80,West,263,6.0,7.0,35,0.00,,---,0.00,VWS V14.01,2013-09-05 00:34:00,
2013-09-04 17:39:00,91.4,59.9,29.80,West,261,0.0,7.0,35,0.00,,---,0.00,VWS V14.01,2013-09-05 00:39:00,
2013-09-04 17:44:00,91.1,58.8,29.80,WNW,292,0.0,7.0,34,0.00,,---,0.00,VWS V14.01,2013-09-05 00:44:00,
2013-09-04 17:45:00,91.0,59.6,29.80,WNW,300,0.0,7.0,35,0.00,,---,0.00,VWS V14.01,2013-09-05 00:45:00,
2013-09-04 17:49:00,90.9,58.7,29.80,WNW,291,3.0,9.0,34,0.00,,---,0.00,VWS V14.01,2013-09-05 00:49:00,
2013-09-04 17:54:00,90.4,59.0,29.80,West,261,0.0,9.0,35,0.00,,---,0.00,VWS V14.01,2013-09-05 00:54:00,
2013-09-04 17:59:00,89.9,57.8,29.80,West,268,1.0,9.0,34,0.00,,---,0.00,VWS V14.01,2013-09-05 00:59:00,
2013-09-04 18:00:00,89.9,59.4,29.80,WSW,242,2.0,9.0,36,0.00,,---,0.00,VWS V14.01,2013-09-05 01:00:00,
2013-09-04 18:04:00,89.6,59.9,29.80,WSW,253,1.0,5.0,37,0.00,,---,0.00,VWS V14.01,2013-09-05 01:04:00,
2013-09-04 18:09:00,89.2,58.8,29.80,West,260,3.0,9.0,36,0.00,,---,0.00,VWS V14.01,2013-09-05 01:09:00,
2013-09-04 18:14:00,89.0,59.4,29.80,WSW,252,0.0,9.0,37,0.00,,---,0.00,VWS V14.01,2013-09-05 01:14:00,
2013-09-04 18:15:00,88.9,59.3,29.81,WSW,254,4.0,9.0,37,0.00,,---,0.00,VWS V14.01,2013-09-05 01:15:00,
2013-09-04 18:19:00,88.6,58.2,29.80,West,268,1.0,5.0,36,0.00,,---,0.00,VWS V14.01,2013-09-05 01:19:00,
2013-09-04 18:24:00,88.3,58.0,29.80,WNW,300,4.0,5.0,36,0.00,,---,0.00,VWS V14.01,2013-09-05 01:24:00,
2013-09-04 18:29:00,88.0,59.2,29.80,West,259,5.0,6.0,38,0.00,,---,0.00,VWS V14.01,2013-09-05 01:29:00,
2013-09-04 18:30:00,87.9,59.2,29.80,West,262,2.0,6.0,38,0.00,,---,0.00,VWS V14.01,2013-09-05 01:30:00,
2013-09-04 18:34:00,87.7,57.5,29.80,West,281,3.0,6.0,36,0.00,,---,0.00,VWS V14.01,2013-09-05 01:34:00,
2013-09-04 18:39:00,87.4,58.0,29.80,West,267,0.0,6.0,37,0.00,,---,0.00,VWS V14.01,2013-09-05 01:39:00,
2013-09-04 18:44:00,87.2,57.0,29.81,NW,306,0.0,6.0,36,0.00,,---,0.00,VWS V14.01,2013-09-05 01:44:00,
2013-09-04 18:49:00,87.1,58.4,29.81,WSW,244,0.0,4.0,38,0.00,,---,0.00,VWS V14.01,2013-09-05 01:49:00,
2013-09-04 18:54:00,86.8,58.9,29.81,WSW,254,2.0,4.0,39,0.00,,---,0.00,VWS V14.01,2013-09-05 01:54:00,
2013-09-04 18:59:00,86.5,58.6,29.81,WSW,253,0.0,4.0,39,0.00,,---,0.00,VWS V14.01,2013-09-05 01:59:00,
2013-09-04 19:00:00,86.5,59.3,29.81,WSW,253,0.0,4.0,40,0.00,,---,0.00,VWS V14.01,2013-09-05 02:00:00,
2013-09-04 19:04:00,86.2,59.1,29.80,WSW,254,0.0,1.0,40,0.00,,---,0.00,VWS V14.01,2013-09-05 02:04:00,
2013-09-04 19:09:00,86.0,59.6,29.80,WSW,253,0.0,1.0,41,0.00,,---,0.00,VWS V14.01,2013-09-05 02:09:00,
2013-09-04 19:14:00,85.7,59.3,29.80,WSW,254,0.0,2.0,41,0.00,,---,0.00,VWS V14.01,2013-09-05 02:14:00,
2013-09-04 19:15:00,85.6,59.9,29.80,WSW,254,0.0,3.0,42,0.00,,---,0.00,VWS V14.01,2013-09-05 02:15:00,
2013-09-04 19:19:00,85.4,59.7,29.80,WSW,256,0.0,1.0,42,0.00,,---,0.00,VWS V14.01,2013-09-05 02:19:00,
2013-09-04 19:24:00,85.3,59.6,29.81,WSW,254,0.0,2.0,42,0.00,,---,0.00,VWS V14.01,2013-09-05 02:24:00,
2013-09-04 19:29:00,85.1,60.1,29.81,WSW,257,0.0,2.0,43,0.00,,---,0.00,VWS V14.01,2013-09-05 02:29:00,
2013-09-04 19:30:00,85.1,60.1,29.81,WSW,257,0.0,2.0,43,0.00,,---,0.00,VWS V14.01,2013-09-05 02:30:00,
2013-09-04 19:34:00,85.0,60.0,29.81,WSW,258,0.0,0.0,43,0.00,,---,0.00,VWS V14.01,2013-09-05 02:34:00,
2013-09-04 19:39:00,84.9,60.6,29.81,WSW,256,0.0,0.0,44,0.00,,---,0.00,VWS V14.01,2013-09-05 02:39:00,
2013-09-04 19:44:00,84.7,61.0,29.81,West,273,0.0,0.0,45,0.00,,---,0.00,VWS V14.01,2013-09-05 02:44:00,
2013-09-04 19:45:00,84.6,60.3,29.81,West,274,0.0,0.0,44,0.00,,---,0.00,VWS V14.01,2013-09-05 02:45:00,
2013-09-04 19:49:00,84.5,60.2,29.81,West,273,0.0,1.0,44,0.00,,---,0.00,VWS V14.01,2013-09-05 02:49:00,
2013-09-04 19:54:00,84.5,60.2,29.81,West,275,0.0,1.0,44,0.00,,---,0.00,VWS V14.01,2013-09-05 02:54:00,
2013-09-04 19:59:00,84.4,60.8,29.81,WNW,298,0.0,3.0,45,0.00,,---,0.00,VWS V14.01,2013-09-05 02:59:00,
2013-09-04 20:00:00,84.3,60.7,29.81,WNW,298,0.0,3.0,45,0.00,,---,0.00,VWS V14.01,2013-09-05 03:00:00,
2013-09-04 20:04:00,84.1,60.5,29.81,WNW,296,0.0,2.0,45,0.00,,---,0.00,VWS V14.01,2013-09-05 03:04:00,
2013-09-04 20:09:00,83.7,60.1,29.81,WNW,298,0.0,2.0,45,0.00,,---,0.00,VWS V14.01,2013-09-05 03:09:00,
2013-09-04 20:14:00,83.5,60.6,29.81,WNW,298,0.0,2.0,46,0.00,,---,0.00,VWS V14.01,2013-09-05 03:14:00,
2013-09-04 20:15:00,83.4,60.5,29.81,WNW,298,0.0,2.0,46,0.00,,---,0.00,VWS V14.01,2013-09-05 03:15:00,
2013-09-04 20:19:00,83.2,60.9,29.81,WNW,297,0.0,0.0,47,0.00,,---,0.00,VWS V14.01,2013-09-05 03:19:00,
2013-09-04 20:24:00,82.9,60.6,29.81,WNW,298,0.0,0.0,47,0.00,,---,0.00,VWS V14.01,2013-09-05 03:24:00,
2013-09-04 20:29:00,82.6,60.3,29.81,WNW,296,0.0,0.0,47,0.00,,---,0.00,VWS V14.01,2013-09-05 03:29:00,
2013-09-04 20:30:00,82.6,60.3,29.81,WNW,296,0.0,0.0,47,0.00,,---,0.00,VWS V14.01,2013-09-05 03:30:00,
2013-09-04 20:34:00,82.4,60.8,29.81,WNW,296,0.0,0.0,48,0.00,,---,0.00,VWS V14.01,2013-09-05 03:34:00,
2013-09-04 20:39:00,82.3,60.7,29.82,WNW,298,0.0,0.0,48,0.00,,---,0.00,VWS V14.01,2013-09-05 03:39:00,
2013-09-04 20:44:00,82.2,60.6,29.82,WNW,298,0.0,0.0,48,0.00,,---,0.00,VWS V14.01,2013-09-05 03:44:00,
2013-09-04 20:45:00,82.1,60.5,29.82,WNW,297,1.0,1.0,48,0.00,,---,0.00,VWS V14.01,2013-09-05 03:45:00,
2013-09-04 20:49:00,82.0,59.8,29.82,WNW,297,0.0,1.0,47,0.00,,---,0.00,VWS V14.01,2013-09-05 03:49:00,
2013-09-04 20:54:00,81.8,60.2,29.82,WNW,298,0.0,1.0,48,0.00,,---,0.00,VWS V14.01,2013-09-05 03:54:00,
2013-09-04 20:59:00,81.6,60.0,29.82,WNW,298,0.0,1.0,48,0.00,,---,0.00,VWS V14.01,2013-09-05 03:59:00,
2013-09-04 21:00:00,81.6,60.6,29.82,WNW,297,0.0,1.0,49,0.00,,---,0.00,VWS V14.01,2013-09-05 04:00:00,
2013-09-04 21:01:00,81.5,60.5,29.81,WNW,296,0.0,0.0,49,0.00,,---,0.00,VWS V14.01,2013-09-05 04:01:00,
2013-09-04 21:06:00,81.3,60.3,29.82,WNW,296,0.0,0.0,49,0.00,,---,0.00,VWS V14.01,2013-09-05 04:06:00,
2013-09-04 21:11:00,81.1,60.7,29.82,WNW,298,0.0,0.0,50,0.00,,---,0.00,VWS V14.01,2013-09-05 04:11:00,
2013-09-04 21:15:00,80.9,60.5,29.82,WNW,297,0.0,0.0,50,0.00,,---,0.00,VWS V14.01,2013-09-05 04:15:00,
2013-09-04 21:16:00,80.8,60.4,29.82,WNW,298,0.0,0.0,50,0.00,,---,0.00,VWS V14.01,2013-09-05 04:16:00,
2013-09-04 21:21:00,80.7,60.9,29.82,WNW,298,0.0,0.0,51,0.00,,---,0.00,VWS V14.01,2013-09-05 04:21:00,
2013-09-04 21:26:00,80.5,60.7,29.82,WNW,297,0.0,0.0,51,0.00,,---,0.00,VWS V14.01,2013-09-05 04:26:00,
2013-09-04 21:30:00,80.3,60.0,29.83,WNW,297,0.0,0.0,50,0.00,,---,0.00,VWS V14.01,2013-09-05 04:30:00,
2013-09-04 21:31:00,80.3,60.0,29.83,WNW,297,0.0,0.0,50,0.00,,---,0.00,VWS V14.01,2013-09-05 04:31:00,
2013-09-04 21:36:00,80.1,59.8,29.83,WNW,298,0.0,0.0,50,0.00,,---,0.00,VWS V14.01,2013-09-05 04:36:00,
2013-09-04 21:41:00,79.9,59.6,29.83,WNW,296,0.0,0.0,50,0.00,,---,0.00,VWS V14.01,2013-09-05 04:41:00,
2013-09-04 21:45:00,79.7,58.9,29.83,WNW,298,0.0,0.0,49,0.00,,---,0.00,VWS V14.01,2013-09-05 04:45:00,
2013-09-04 21:46:00,79.7,58.9,29.83,WNW,297,0.0,0.0,49,0.00,,---,0.00,VWS V14.01,2013-09-05 04:46:00,
2013-09-04 21:51:00,79.5,59.2,29.83,WNW,298,0.0,0.0,50,0.00,,---,0.00,VWS V14.01,2013-09-05 04:51:00,
2013-09-04 21:56:00,79.4,59.7,29.83,WNW,297,0.0,0.0,51,0.00,,---,0.00,VWS V14.01,2013-09-05 04:56:00,
2013-09-04 22:01:00,79.3,59.6,29.83,WNW,297,0.0,0.0,51,0.00,,---,0.00,VWS V14.01,2013-09-05 05:01:00,
2013-09-04 22:06:00,79.2,60.6,29.83,WNW,296,0.0,0.0,53,0.00,,---,0.00,VWS V14.01,2013-09-05 05:06:00,
2013-09-04 22:11:00,79.2,61.7,29.83,WNW,296,0.0,0.0,55,0.00,,---,0.00,VWS V14.01,2013-09-05 05:11:00,
2013-09-04 22:15:00,79.4,61.8,29.83,SSW,203,0.0,2.0,55,0.00,,---,0.00,VWS V14.01,2013-09-05 05:15:00,
2013-09-04 22:16:00,79.4,61.8,29.83,SSW,203,0.0,0.0,55,0.00,,---,0.00,VWS V14.01,2013-09-05 05:16:00,
2013-09-04 22:21:00,79.5,61.9,29.83,SSW,203,0.0,0.0,55,0.00,,---,0.00,VWS V14.01,2013-09-05 05:21:00,
2013-09-04 22:26:00,79.6,61.5,29.83,SSW,203,0.0,0.0,54,0.00,,---,0.00,VWS V14.01,2013-09-05 05:26:00,
2013-09-04 22:30:00,79.5,61.4,29.83,SSW,203,0.0,0.0,54,0.00,,---,0.00,VWS V14.01,2013-09-05 05:30:00,
2013-09-04 22:31:00,79.5,61.4,29.83,SSW,203,0.0,0.0,54,0.00,,---,0.00,VWS V14.01,2013-09-05 05:31:00,
2013-09-04 22:36:00,79.3,61.2,29.83,SSW,203,0.0,0.0,54,0.00,,---,0.00,VWS V14.01,2013-09-05 05:36:00,
2013-09-04 22:41:00,79.1,61.0,29.83,SSW,204,0.0,0.0,54,0.00,,---,0.00,VWS V14.01,2013-09-05 05:41:00,
2013-09-04 22:45:00,78.9,61.4,29.83,SSW,198,0.0,2.0,55,0.00,,---,0.00,VWS V14.01,2013-09-05 05:45:00,
2013-09-04 22:46:00,78.9,60.9,29.83,SSW,198,0.0,0.0,54,0.00,,---,0.00,VWS V14.01,2013-09-05 05:46:00,
2013-09-04 22:51:00,78.8,61.3,29.83,SSW,197,0.0,2.0,55,0.00,,---,0.00,VWS V14.01,2013-09-05 05:51:00,
2013-09-04 22:56:00,78.7,61.2,29.83,SSW,197,0.0,2.0,55,0.00,,---,0.00,VWS V14.01,2013-09-05 05:56:00,
2013-09-04 23:00:00,78.7,61.2,29.83,SSW,196,0.0,2.0,55,0.00,,---,0.00,VWS V14.01,2013-09-05 06:00:00,
2013-09-04 23:01:00,78.7,61.2,29.83,SSW,198,0.0,0.0,55,0.00,,---,0.00,VWS V14.01,2013-09-05 06:01:00,
2013-09-04 23:06:00,78.7,61.2,29.83,SSW,196,0.0,0.0,55,0.00,,---,0.00,VWS V14.01,2013-09-05 06:06:00,
2013-09-04 23:11:00,78.4,59.9,29.83,SSW,197,0.0,0.0,53,0.00,,---,0.00,VWS V14.01,2013-09-05 06:11:00,
2013-09-04 23:15:00,78.2,59.7,29.83,SSW,196,0.0,0.0,53,0.00,,---,0.00,VWS V14.01,2013-09-05 06:15:00,
2013-09-04 23:16:00,78.1,59.6,29.83,SSW,198,0.0,0.0,53,0.00,,---,0.00,VWS V14.01,2013-09-05 06:16:00,
2013-09-04 23:21:00,77.9,59.4,29.83,East,101,2.0,3.0,53,0.00,,---,0.00,VWS V14.01,2013-09-05 06:21:00,
2013-09-04 23:26:00,77.7,58.2,29.83,East,82,0.0,4.0,51,0.00,,---,0.00,VWS V14.01,2013-09-05 06:26:00,
2013-09-04 23:30:00,77.5,58.0,29.83,East,82,0.0,4.0,51,0.00,,---,0.00,VWS V14.01,2013-09-05 06:30:00,
2013-09-04 23:31:00,77.5,58.0,29.83,East,82,0.0,0.0,51,0.00,,---,0.00,VWS V14.01,2013-09-05 06:31:00,
2013-09-04 23:36:00,77.3,58.3,29.83,East,82,0.0,1.0,52,0.00,,---,0.00,VWS V14.01,2013-09-05 06:36:00,
2013-09-04 23:41:00,77.2,58.8,29.83,East,82,0.0,1.0,53,0.00,,---,0.00,VWS V14.01,2013-09-05 06:41:00,
2013-09-04 23:45:00,77.1,58.1,29.83,East,82,0.0,1.0,52,0.00,,---,0.00,VWS V14.01,2013-09-05 06:45:00,
2013-09-04 23:46:00,77.1,58.1,29.83,East,82,0.0,0.0,52,0.00,,---,0.00,VWS V14.01,2013-09-05 06:46:00,
2013-09-04 23:51:00,77.0,58.0,29.83,East,82,2.0,3.0,52,0.00,,---,0.00,VWS V14.01,2013-09-05 06:51:00,
2013-09-04 23:56:00,76.9,58.0,29.83,East,82,0.0,3.0,52,0.00,,---,0.00,VWS V14.01,2013-09-05 06:56:00,